createdAt,value
2023-01-05T00:01:54.835Z,11.50
2023-01-05T00:04:43.666Z,11.40
2023-01-05T00:07:32.186Z,11.30
2023-01-05T00:10:34.600Z,11.30
2023-01-05T00:13:40.572Z,11.30
2023-01-05T00:16:46.482Z,11.20
2023-01-05T00:19:53.839Z,11.30
2023-01-05T00:22:46.582Z,11.30
2023-01-05T00:25:39.094Z,11.30
2023-01-05T00:28:27.655Z,11.30
2023-01-05T00:31:16.187Z,11.30
2023-01-05T00:34:04.784Z,11.40
2023-01-05T00:36:54.853Z,11.30
2023-01-05T00:39:43.536Z,11.40
2023-01-05T00:42:32.200Z,11.30
2023-01-05T00:45:22.045Z,11.30
2023-01-05T00:48:10.805Z,11.40
2023-01-05T00:50:59.382Z,11.40
2023-01-05T00:53:50.661Z,11.30
2023-01-05T00:56:39.250Z,11.30
2023-01-05T00:59:28.277Z,11.30
2023-01-05T01:02:16.944Z,11.40
2023-01-05T01:05:07.079Z,11.40
2023-01-05T01:07:55.574Z,11.30
2023-01-05T01:10:47.117Z,11.40
2023-01-05T01:13:35.911Z,11.30
2023-01-05T01:16:24.585Z,11.30
2023-01-05T01:19:15.618Z,11.20
2023-01-05T01:22:04.485Z,11.20
2023-01-05T01:24:53.787Z,11.30
2023-01-05T01:27:43.786Z,11.40
2023-01-05T01:30:32.483Z,11.30
2023-01-05T01:33:21.686Z,11.30
2023-01-05T01:36:10.672Z,11.40
2023-01-05T01:38:59.251Z,11.40
2023-01-05T01:41:48.460Z,11.40
2023-01-05T01:44:59.412Z,11.40
2023-01-05T01:47:59.618Z,11.50
2023-01-05T01:50:52.357Z,11.40
2023-01-05T01:53:44.636Z,11.40
2023-01-05T01:56:41.731Z,11.50
2023-01-05T01:59:30.710Z,11.60
2023-01-05T02:02:25.004Z,11.70
2023-01-05T02:05:14.476Z,11.60
2023-01-05T02:08:03.023Z,11.60
2023-01-05T02:11:03.424Z,11.70
2023-01-05T02:14:07.824Z,11.70
2023-01-05T02:17:08.566Z,11.60
2023-01-05T02:20:39.002Z,11.70
2023-01-05T02:24:00.653Z,11.80
2023-01-05T02:27:10.491Z,11.80
2023-01-05T02:30:44.096Z,11.80
2023-01-05T02:33:54.917Z,11.80
2023-01-05T02:36:53.962Z,11.80
2023-01-05T02:39:50.657Z,11.80
2023-01-05T02:42:42.346Z,11.80
2023-01-05T02:45:31.680Z,11.80
2023-01-05T02:48:23.788Z,11.80
2023-01-05T02:51:15.823Z,11.80
2023-01-05T02:54:09.372Z,11.80
2023-01-05T02:57:02.228Z,11.80
2023-01-05T02:59:55.327Z,11.90
2023-01-05T03:02:49.527Z,11.90
2023-01-05T03:05:43.941Z,11.90
2023-01-05T03:08:34.684Z,11.80
2023-01-05T03:11:51.098Z,11.80
2023-01-05T03:14:44.109Z,11.80
2023-01-05T03:17:36.029Z,11.80
2023-01-05T03:20:26.936Z,11.80
2023-01-05T03:23:38.109Z,11.80
2023-01-05T03:26:44.752Z,11.70
2023-01-05T03:29:51.965Z,11.70
2023-01-05T03:33:04.645Z,11.70
2023-01-05T03:35:58.034Z,11.70
2023-01-05T03:38:51.514Z,11.70
2023-01-05T03:41:40.925Z,11.70
2023-01-05T03:44:29.612Z,11.70
2023-01-05T03:47:18.445Z,11.70
2023-01-05T03:50:09.934Z,11.70
2023-01-05T03:52:59.354Z,11.70
2023-01-05T03:55:51.721Z,11.70
2023-01-05T03:58:42.516Z,11.70
2023-01-05T04:01:31.282Z,11.70
2023-01-05T04:04:21.357Z,11.80
2023-01-05T04:07:10.146Z,11.80
2023-01-05T04:09:58.664Z,11.80
2023-01-05T04:12:49.688Z,11.80
2023-01-05T04:15:41.066Z,11.80
2023-01-05T04:18:31.469Z,11.80
2023-01-05T04:21:20.312Z,11.80
2023-01-05T04:24:11.655Z,11.90
2023-01-05T04:27:02.517Z,11.80
2023-01-05T04:29:53.512Z,11.80
2023-01-05T04:32:42.046Z,11.80
2023-01-05T04:35:35.070Z,11.70
2023-01-05T04:38:23.791Z,11.80
2023-01-05T04:41:14.489Z,11.80
2023-01-05T04:44:08.415Z,11.80
2023-01-05T04:46:58.755Z,11.80
2023-01-05T04:49:47.343Z,11.90
2023-01-05T04:52:37.523Z,11.80
2023-01-05T04:55:26.149Z,11.80
2023-01-05T04:58:14.850Z,11.80
2023-01-05T05:01:03.974Z,11.80
2023-01-05T05:03:57.182Z,11.80
2023-01-05T05:06:47.395Z,11.80
2023-01-05T05:09:37.076Z,11.80
2023-01-05T05:12:25.759Z,11.90
2023-01-05T05:15:14.714Z,11.90
2023-01-05T05:18:09.697Z,11.90
2023-01-05T05:21:01.883Z,12.10
2023-01-05T05:23:54.297Z,12.00
2023-01-05T05:26:42.942Z,11.90
2023-01-05T05:29:31.575Z,12.10
2023-01-05T05:32:20.111Z,12.00
2023-01-05T05:35:09.692Z,12.10
2023-01-05T05:38:00.110Z,12.00
2023-01-05T05:40:49.684Z,12.00
2023-01-05T05:43:38.251Z,12.10
2023-01-05T05:46:26.980Z,12.10
2023-01-05T05:49:15.484Z,12.30
2023-01-05T05:52:04.140Z,12.40
2023-01-05T05:54:54.297Z,12.50
2023-01-05T05:57:42.980Z,12.40
2023-01-05T06:00:31.494Z,12.40
2023-01-05T06:03:20.009Z,12.50
2023-01-05T06:06:09.405Z,12.50
2023-01-05T06:08:58.141Z,12.70
2023-01-05T06:11:47.990Z,12.50
2023-01-05T06:14:36.687Z,12.40
2023-01-05T06:17:25.387Z,12.40
2023-01-05T06:20:14.110Z,12.30
2023-01-05T06:23:02.773Z,12.30
2023-01-05T06:25:51.535Z,12.40
2023-01-05T06:28:41.501Z,12.40
2023-01-05T06:31:30.045Z,12.30
2023-01-05T06:34:18.503Z,12.30
2023-01-05T06:37:07.402Z,12.40
2023-01-05T06:39:56.460Z,12.50
2023-01-05T06:42:45.092Z,12.60
2023-01-05T06:45:34.999Z,12.80
2023-01-05T06:48:23.489Z,12.90
2023-01-05T06:51:12.009Z,13.00
2023-01-05T06:54:00.597Z,13.00
2023-01-05T06:56:49.327Z,13.20
2023-01-05T06:59:37.864Z,13.30
2023-01-05T07:02:27.686Z,13.30
2023-01-05T07:05:17.065Z,13.20
2023-01-05T07:08:05.882Z,13.10
2023-01-05T07:10:54.415Z,13.20
2023-01-05T07:13:43.581Z,13.10
2023-01-05T07:16:32.221Z,13.10
2023-01-05T07:19:22.306Z,13.00
2023-01-05T07:22:10.816Z,13.00
2023-01-05T07:24:59.622Z,12.80
2023-01-05T07:27:52.374Z,12.80
2023-01-05T07:30:40.949Z,12.80
2023-01-05T07:33:32.462Z,12.90
2023-01-05T07:36:26.012Z,12.90
2023-01-05T07:39:14.872Z,13.00
2023-01-05T07:42:03.402Z,13.00
2023-01-05T07:44:52.999Z,12.80
2023-01-05T07:47:41.569Z,12.80
2023-01-05T07:50:30.280Z,12.90
2023-01-05T07:53:20.269Z,13.00
2023-01-05T07:56:10.570Z,13.00
2023-01-05T07:58:59.679Z,13.00
2023-01-05T08:01:48.670Z,13.10
2023-01-05T08:04:37.461Z,13.10
2023-01-05T08:07:27.023Z,13.10
2023-01-05T08:10:32.244Z,13.10
2023-01-05T08:13:38.194Z,13.20
2023-01-05T08:16:27.244Z,13.10
2023-01-05T08:19:15.784Z,12.80
2023-01-05T08:22:04.353Z,12.70
2023-01-05T08:24:52.825Z,12.70
2023-01-05T08:27:42.709Z,12.90
2023-01-05T08:30:32.155Z,12.90
2023-01-05T08:33:20.601Z,12.90
2023-01-05T08:36:10.633Z,13.00
2023-01-05T08:39:01.247Z,13.00
2023-01-05T08:41:49.838Z,12.90
2023-01-05T08:44:39.758Z,12.90
2023-01-05T08:47:28.739Z,12.90
2023-01-05T08:50:17.399Z,12.80
2023-01-05T08:53:05.910Z,12.70
2023-01-05T08:55:54.439Z,12.70
2023-01-05T08:58:43.350Z,12.70
2023-01-05T09:01:33.471Z,12.70
2023-01-05T09:04:22.280Z,12.70
2023-01-05T09:07:10.979Z,12.70
2023-01-05T09:09:59.571Z,12.80
2023-01-05T09:12:48.214Z,12.70
2023-01-05T09:15:36.970Z,12.60
2023-01-05T09:18:27.188Z,12.60
2023-01-05T09:21:15.937Z,12.60
2023-01-05T09:24:04.771Z,12.60
2023-01-05T09:26:53.486Z,12.50
2023-01-05T09:29:42.093Z,12.40
2023-01-05T09:32:30.732Z,12.40
2023-01-05T09:35:20.709Z,12.40
2023-01-05T09:38:09.315Z,12.40
2023-01-05T09:41:03.782Z,12.50
2023-01-05T09:43:57.122Z,12.40
2023-01-05T09:46:49.588Z,12.30
2023-01-05T09:49:40.575Z,12.40
2023-01-05T09:52:37.676Z,12.30
2023-01-05T09:55:30.219Z,12.30
2023-01-05T09:58:26.435Z,12.40
2023-01-05T10:01:19.550Z,12.60
2023-01-05T10:04:13.094Z,12.50
2023-01-05T10:07:06.407Z,12.50
2023-01-05T10:09:59.331Z,12.50
2023-01-05T10:13:07.152Z,12.50
2023-01-05T10:15:57.585Z,12.50
2023-01-05T10:18:47.438Z,12.50
2023-01-05T10:21:49.539Z,12.60
2023-01-05T10:24:47.679Z,12.70
2023-01-05T10:27:42.366Z,12.60
2023-01-05T10:30:47.706Z,12.60
2023-01-05T10:33:53.750Z,12.70
2023-01-05T10:37:09.657Z,12.80
2023-01-05T10:40:19.252Z,12.90
2023-01-05T10:43:34.535Z,12.90
2023-01-05T10:46:36.538Z,13.00
2023-01-05T10:49:31.620Z,13.00
2023-01-05T10:52:22.191Z,13.00
2023-01-05T10:55:17.275Z,13.00
2023-01-05T10:58:05.768Z,13.10
2023-01-05T11:00:57.872Z,13.10
2023-01-05T11:07:05.237Z,13.20
2023-01-05T11:09:54.426Z,13.30
2023-01-05T11:12:51.569Z,13.30
2023-01-05T11:15:44.011Z,13.20
2023-01-05T11:18:37.191Z,13.10
2023-01-05T11:21:28.884Z,13.00
2023-01-05T11:24:32.861Z,13.10
2023-01-05T11:27:25.763Z,13.20
2023-01-05T11:30:24.682Z,13.20
2023-01-05T11:33:25.994Z,13.30
2023-01-05T11:36:16.774Z,13.30
2023-01-05T11:39:05.573Z,13.30
2023-01-05T11:42:05.434Z,13.30
2023-01-05T11:44:56.739Z,13.10
2023-01-05T11:47:47.684Z,13.10
2023-01-05T11:50:46.627Z,13.10
2023-01-05T11:53:41.529Z,13.20
2023-01-05T11:56:30.136Z,13.20
2023-01-05T11:59:30.633Z,13.10
2023-01-05T12:02:58.918Z,13.10
2023-01-05T12:05:51.609Z,13.10
2023-01-05T12:08:51.047Z,13.10
2023-01-05T12:11:46.391Z,13.10
2023-01-05T12:14:49.383Z,13.10
2023-01-05T12:17:55.036Z,13.00
2023-01-05T12:21:07.862Z,13.10
2023-01-05T12:24:29.092Z,13.10
2023-01-05T12:27:28.902Z,13.10
2023-01-05T12:34:02.315Z,13.40
2023-01-05T12:37:17.879Z,13.50
2023-01-05T12:40:30.726Z,13.30
2023-01-05T12:43:31.681Z,13.30
2023-01-05T12:46:36.272Z,13.30
2023-01-05T12:49:31.087Z,13.20
2023-01-05T12:52:28.053Z,13.20
2023-01-05T12:55:21.321Z,13.20
2023-01-05T12:58:16.086Z,13.20
2023-01-05T13:01:12.611Z,13.10
2023-01-05T13:04:06.827Z,13.10
2023-01-05T13:07:00.082Z,13.10
2023-01-05T13:10:03.000Z,13.20
2023-01-05T13:12:57.817Z,13.30
2023-01-05T13:15:57.800Z,13.50
2023-01-05T13:18:51.792Z,13.60
2023-01-05T13:21:43.864Z,13.60
2023-01-05T13:24:36.928Z,13.60
2023-01-05T13:27:26.209Z,13.60
2023-01-05T13:30:22.796Z,13.50
2023-01-05T13:33:38.042Z,13.50
2023-01-05T13:36:42.567Z,13.50
2023-01-05T13:39:44.170Z,13.50
2023-01-05T13:42:50.823Z,13.50
2023-01-05T13:46:07.835Z,13.70
2023-01-05T13:49:20.188Z,13.70
2023-01-05T13:52:23.027Z,13.70
2023-01-05T13:55:24.988Z,13.60
2023-01-05T13:58:34.511Z,13.50
2023-01-05T14:01:37.982Z,13.60
2023-01-05T14:04:31.619Z,13.60
2023-01-05T14:07:23.619Z,13.50
2023-01-05T14:10:23.314Z,13.50
2023-01-05T14:13:47.755Z,13.50
2023-01-05T14:17:00.137Z,13.40
2023-01-05T14:19:53.106Z,13.40
2023-01-05T14:22:43.936Z,13.40
2023-01-05T14:25:50.027Z,13.50
2023-01-05T14:28:47.313Z,13.40
2023-01-05T14:31:39.435Z,13.40
2023-01-05T14:34:29.600Z,13.50
2023-01-05T14:37:24.180Z,13.60
2023-01-05T14:40:25.883Z,13.60
2023-01-05T14:43:26.876Z,13.50
2023-01-05T14:46:16.405Z,13.60
2023-01-05T14:49:09.038Z,13.40
2023-01-05T14:51:59.698Z,13.30
2023-01-05T14:55:26.738Z,13.20
2023-01-05T14:58:50.528Z,13.40
2023-01-05T15:01:46.895Z,13.30
2023-01-05T15:04:39.578Z,13.30
2023-01-05T15:11:02.468Z,13.20
2023-01-05T15:14:35.243Z,13.40
2023-01-05T15:17:55.316Z,13.40
2023-01-05T15:21:28.717Z,13.30
2023-01-05T15:24:53.725Z,13.20
2023-01-05T15:27:59.304Z,13.10
2023-01-05T15:31:20.406Z,13.20
2023-01-05T15:34:19.909Z,13.10
2023-01-05T15:37:14.885Z,13.10
2023-01-05T15:40:07.623Z,13.10
2023-01-05T15:42:59.978Z,13.10
2023-01-05T15:45:53.407Z,13.20
2023-01-05T15:48:47.167Z,13.20
2023-01-05T15:51:36.928Z,13.20
2023-01-05T15:54:27.954Z,13.20
2023-01-05T15:57:21.507Z,13.20
2023-01-05T16:00:18.424Z,13.30
2023-01-05T16:03:21.448Z,13.40
2023-01-05T16:06:17.507Z,13.30
2023-01-05T16:09:10.449Z,13.30
2023-01-05T16:12:03.035Z,13.40
2023-01-05T16:14:57.814Z,13.30
2023-01-05T16:17:46.570Z,13.30
2023-01-05T16:20:38.152Z,13.20
2023-01-05T16:23:36.484Z,13.20
2023-01-05T16:26:25.527Z,13.30
2023-01-05T16:29:34.551Z,13.30
2023-01-05T16:32:29.111Z,13.30
2023-01-05T16:35:25.723Z,13.30
2023-01-05T16:38:33.771Z,13.10
2023-01-05T16:41:23.794Z,13.10
2023-01-05T16:44:14.568Z,13.00
2023-01-05T16:47:08.741Z,13.10
2023-01-05T16:49:58.722Z,13.10
2023-01-05T16:52:53.912Z,13.20
2023-01-05T16:55:44.354Z,13.30
2023-01-05T16:58:38.298Z,13.20
2023-01-05T17:01:34.343Z,13.20
2023-01-05T17:04:23.292Z,13.20
2023-01-05T17:07:12.143Z,13.20
2023-01-05T17:10:01.072Z,13.20
2023-01-05T17:12:57.604Z,13.10
2023-01-05T17:15:47.967Z,13.10
2023-01-05T17:18:36.660Z,13.10
2023-01-05T17:21:29.659Z,13.10
2023-01-05T17:24:18.835Z,13.10
2023-01-05T17:27:07.574Z,13.00
2023-01-05T17:29:57.551Z,13.10
2023-01-05T17:32:46.254Z,13.00
2023-01-05T17:35:34.807Z,12.90
2023-01-05T17:38:23.567Z,12.80
2023-01-05T17:41:16.097Z,12.90
2023-01-05T17:44:05.924Z,12.90
2023-01-05T17:46:56.155Z,12.90
2023-01-05T17:49:44.812Z,12.80
2023-01-05T17:52:33.383Z,12.80
2023-01-05T17:55:22.875Z,12.80
2023-01-05T17:58:14.252Z,12.90
2023-01-05T18:01:03.034Z,13.00
2023-01-05T18:03:53.171Z,12.80
2023-01-05T18:06:41.755Z,12.70
2023-01-05T18:09:30.979Z,12.80
2023-01-05T18:12:19.464Z,12.70
2023-01-05T18:15:09.713Z,12.60
2023-01-05T18:17:59.583Z,12.70
2023-01-05T18:20:52.306Z,12.70
2023-01-05T18:23:41.196Z,12.80
2023-01-05T18:26:29.719Z,12.70
2023-01-05T18:29:18.274Z,12.70
2023-01-05T18:32:08.130Z,12.70
2023-01-05T18:34:56.683Z,12.70
2023-01-05T18:37:46.594Z,12.80
2023-01-05T18:40:35.230Z,12.80
2023-01-05T18:43:23.904Z,12.60
2023-01-05T18:46:12.692Z,12.60
2023-01-05T18:49:01.245Z,12.60
2023-01-05T18:51:54.946Z,12.60
2023-01-05T18:54:50.703Z,12.50
2023-01-05T18:57:39.393Z,12.50
2023-01-05T19:00:33.161Z,12.50
2023-01-05T19:03:24.776Z,12.40
2023-01-05T19:06:19.454Z,12.40
2023-01-05T19:09:11.793Z,12.30
2023-01-05T19:12:07.952Z,12.40
2023-01-05T19:14:56.544Z,12.40
2023-01-05T19:17:54.084Z,12.40
2023-01-05T19:20:45.524Z,12.40
2023-01-05T19:23:34.085Z,12.50
2023-01-05T19:26:22.584Z,12.60
2023-01-05T19:29:19.745Z,12.60
2023-01-05T19:32:08.313Z,12.70
2023-01-05T19:35:08.112Z,12.60
2023-01-05T19:38:00.463Z,12.70
2023-01-05T19:40:49.017Z,12.70
2023-01-05T19:43:41.574Z,12.70
2023-01-05T19:46:34.475Z,12.60
2023-01-05T19:49:25.161Z,12.50
2023-01-05T19:52:13.971Z,12.40
2023-01-05T19:55:02.465Z,12.30
2023-01-05T19:57:51.160Z,12.30
2023-01-05T20:00:39.679Z,12.50
2023-01-05T20:03:29.812Z,12.60
2023-01-05T20:06:20.660Z,12.70
2023-01-05T20:09:12.292Z,12.80
2023-01-05T20:12:13.264Z,12.90
2023-01-05T20:15:03.300Z,13.10
2023-01-05T20:17:52.009Z,13.10
2023-01-05T20:20:42.257Z,13.20
2023-01-05T20:23:33.914Z,13.30
2023-01-05T20:26:24.276Z,13.30
2023-01-05T20:29:13.490Z,13.20
2023-01-05T20:32:05.083Z,13.10
2023-01-05T20:34:55.338Z,13.00
2023-01-05T20:37:45.244Z,13.10
2023-01-05T20:40:33.726Z,13.10
2023-01-05T20:43:22.413Z,13.10
2023-01-05T20:46:12.204Z,13.10
2023-01-05T20:49:01.308Z,13.00
2023-01-05T20:51:50.394Z,13.00
2023-01-05T20:54:41.372Z,12.90
2023-01-05T20:57:30.653Z,12.80
2023-01-05T21:00:19.304Z,12.80
2023-01-05T21:03:07.867Z,12.70
2023-01-05T21:05:56.611Z,12.60
2023-01-05T21:08:47.779Z,12.50
2023-01-05T21:11:39.202Z,12.50
2023-01-05T21:14:30.781Z,12.60
2023-01-05T21:17:22.025Z,12.70
2023-01-05T21:20:10.814Z,12.70
2023-01-05T21:22:59.320Z,12.80
2023-01-05T21:26:06.017Z,13.00
2023-01-05T21:28:57.097Z,12.80
2023-01-05T21:31:45.746Z,12.80
2023-01-05T21:34:34.278Z,12.60
2023-01-05T21:37:22.850Z,12.50
2023-01-05T21:40:12.589Z,12.50
2023-01-05T21:43:02.376Z,12.50
2023-01-05T21:45:52.664Z,12.70
2023-01-05T21:48:41.371Z,12.90
2023-01-05T21:51:47.323Z,12.90
2023-01-05T21:54:53.492Z,13.00
2023-01-05T21:57:42.141Z,13.10
2023-01-05T22:00:30.879Z,13.20
2023-01-05T22:03:20.910Z,13.20
2023-01-05T22:06:09.752Z,13.30
2023-01-05T22:08:58.325Z,13.20
2023-01-05T22:11:46.815Z,13.10
2023-01-05T22:14:35.843Z,13.00
2023-01-05T22:17:24.590Z,13.00
2023-01-05T22:20:16.004Z,12.90
2023-01-05T22:23:04.507Z,12.90
2023-01-05T22:26:00.585Z,12.80
2023-01-05T22:28:50.937Z,12.80
2023-01-05T22:31:39.700Z,12.70
2023-01-05T22:34:28.214Z,12.80
2023-01-05T22:37:18.132Z,12.80
2023-01-05T22:40:07.981Z,12.70
2023-01-05T22:42:58.921Z,12.80
2023-01-05T22:45:47.507Z,12.80
2023-01-05T22:48:37.381Z,12.70
2023-01-05T22:51:27.526Z,12.60
2023-01-05T22:54:17.865Z,12.60
2023-01-05T22:57:06.977Z,12.60
2023-01-05T22:59:55.572Z,12.40
2023-01-05T23:02:44.194Z,12.30
2023-01-05T23:05:32.776Z,12.20
2023-01-05T23:08:21.326Z,12.20
2023-01-05T23:11:14.051Z,12.20
2023-01-05T23:14:04.690Z,12.30
2023-01-05T23:16:53.439Z,12.30
2023-01-05T23:19:42.147Z,12.30
2023-01-05T23:22:30.713Z,12.30
2023-01-05T23:25:19.487Z,12.30
2023-01-05T23:28:09.727Z,12.60
2023-01-05T23:30:59.849Z,12.60
2023-01-05T23:33:49.209Z,12.80
2023-01-05T23:36:37.813Z,12.80
2023-01-05T23:39:26.338Z,12.90
2023-01-05T23:42:28.860Z,13.00
2023-01-05T23:45:19.058Z,13.10
2023-01-05T23:48:07.792Z,13.20
2023-01-05T23:50:57.199Z,13.30
2023-01-05T23:53:47.414Z,13.40
2023-01-05T23:56:35.928Z,13.40
2023-01-05T23:59:24.475Z,13.50
